Time;durP1;ratioP1;P1;durP2;ratioP2;P2;SDS_P1;SDS_P2;PMS_P1;PMS_P2;Temp;Humidity;BMP_temperature;BMP_pressure;BME280_temperature;BME280_humidity;BME280_pressure;Samples;Min_cycle;Max_cycle;Signal;HPM_P1;HPM_P2
2022/06/27 00:00:50;;;;;;;4.97;4.30;;;19.60;99.90;;;;;;5039372;28;20947;-69
2022/06/27 00:03:18;;;;;;;6.70;5.43;;;19.70;99.90;;;;;;5039926;28;20557;-69
2022/06/27 00:05:45;;;;;;;5.90;5.40;;;19.70;99.90;;;;;;5041733;28;20844;-69
2022/06/27 00:08:12;;;;;;;6.40;5.40;;;19.70;99.90;;;;;;5038627;28;20448;-70
2022/06/27 00:10:40;;;;;;;7.13;4.67;;;19.70;99.90;;;;;;5023749;28;20514;-69
2022/06/27 00:13:07;;;;;;;5.70;5.17;;;19.60;99.90;;;;;;5026617;28;21105;-70
2022/06/27 00:15:34;;;;;;;4.83;4.40;;;19.70;99.90;;;;;;5035971;28;20475;-70
2022/06/27 00:18:00;;;;;;;4.37;3.90;;;19.70;99.90;;;;;;5036706;28;20792;-69
2022/06/27 00:20:29;;;;;;;8.00;3.80;;;19.80;99.90;;;;;;5041377;28;20606;-69
2022/06/27 00:22:56;;;;;;;4.80;4.30;;;19.80;99.90;;;;;;5031655;28;20480;-69
2022/06/27 00:25:23;;;;;;;4.50;4.17;;;19.80;99.90;;;;;;5039313;28;20572;-70
2022/06/27 00:27:50;;;;;;;4.83;4.43;;;19.80;99.90;;;;;;5038861;28;20496;-69
2022/06/27 00:30:17;;;;;;;4.90;4.50;;;19.60;99.90;;;;;;5035620;28;20457;-69
2022/06/27 00:32:44;;;;;;;4.93;3.80;;;19.50;99.90;;;;;;5041842;28;20538;-70
2022/06/27 00:35:11;;;;;;;4.57;4.07;;;19.50;99.90;;;;;;5035075;28;21043;-69
2022/06/27 00:37:39;;;;;;;5.17;4.00;;;19.50;99.90;;;;;;5037292;28;20460;-69
2022/06/27 00:40:08;;;;;;;4.90;4.27;;;19.50;99.90;;;;;;5034548;28;20532;-69
2022/06/27 00:42:35;;;;;;;5.97;4.50;;;19.50;99.90;;;;;;5041388;28;20503;-71
2022/06/27 00:45:02;;;;;;;8.50;4.07;;;19.50;99.90;;;;;;5031710;28;20498;-70
2022/06/27 00:47:29;;;;;;;6.70;4.47;;;19.50;99.90;;;;;;5037238;28;20562;-70
2022/06/27 00:49:56;;;;;;;4.70;4.30;;;19.50;99.90;;;;;;5031782;28;20467;-69
2022/06/27 00:52:23;;;;;;;5.37;4.03;;;19.50;99.90;;;;;;5035754;28;20453;-70
2022/06/27 00:54:52;;;;;;;6.03;4.10;;;19.50;99.90;;;;;;5034419;28;20461;-69
2022/06/27 00:57:19;;;;;;;4.17;3.77;;;19.20;99.90;;;;;;5030959;28;21065;-69
2022/06/27 00:59:46;;;;;;;4.70;4.30;;;19.20;99.90;;;;;;5037602;28;20456;-69
2022/06/27 01:02:14;;;;;;;4.33;3.93;;;19.30;99.90;;;;;;5039773;28;20575;-70
2022/06/27 01:04:41;;;;;;;4.83;3.87;;;19.30;99.90;;;;;;5040474;28;20452;-70
2022/06/27 01:07:09;;;;;;;9.20;4.50;;;19.40;99.90;;;;;;5036558;28;22976;-70
2022/06/27 01:09:37;;;;;;;5.87;4.97;;;19.50;99.90;;;;;;5041595;28;20502;-69
2022/06/27 01:12:07;;;;;;;5.73;4.80;;;19.30;99.90;;;;;;5031971;28;20531;-69
2022/06/27 01:14:33;;;;;;;4.20;3.80;;;19.20;99.90;;;;;;5032949;28;20578;-69
2022/06/27 01:17:01;;;;;;;6.10;3.70;;;19.20;99.90;;;;;;5038997;28;20479;-69
2022/06/27 01:19:28;;;;;;;6.10;4.20;;;19.10;99.90;;;;;;5037175;28;20572;-70
2022/06/27 01:21:57;;;;;;;7.57;4.30;;;19.00;99.90;;;;;;5041425;28;20518;-69
2022/06/27 01:24:27;;;;;;;5.93;4.60;;;19.10;99.90;;;;;;5038031;28;20883;-69
2022/06/27 01:26:54;;;;;;;7.90;4.70;;;19.20;99.90;;;;;;5041516;28;21108;-69
2022/06/27 01:29:22;;;;;;;8.97;4.90;;;19.20;99.90;;;;;;5042394;28;20456;-69
2022/06/27 01:31:49;;;;;;;10.70;5.93;;;19.30;99.90;;;;;;5040240;28;21245;-69
2022/06/27 01:34:17;;;;;;;4.97;4.57;;;19.30;99.90;;;;;;5035129;28;20571;-69
2022/06/27 01:36:45;;;;;;;7.93;6.10;;;19.40;99.90;;;;;;5032612;28;21030;-69
2022/06/27 01:39:14;;;;;;;5.20;4.70;;;19.40;99.90;;;;;;5034938;28;20910;-70
2022/06/27 01:41:44;;;;;;;8.47;4.67;;;19.20;99.90;;;;;;5035711;28;20490;-69
2022/06/27 01:44:12;;;;;;;6.17;4.30;;;19.10;99.90;;;;;;5036473;28;20580;-69
2022/06/27 01:46:44;;;;;;;5.03;4.47;;;19.20;99.90;;;;;;5039398;28;20475;-69
2022/06/27 01:49:12;;;;;;;5.67;4.87;;;19.20;99.90;;;;;;5041716;28;20471;-69
2022/06/27 01:51:40;;;;;;;8.10;5.40;;;19.20;99.90;;;;;;5041844;28;20520;-69
2022/06/27 01:54:08;;;;;;;5.40;4.53;;;19.20;99.90;;;;;;5035664;28;20463;-70
2022/06/27 01:56:35;;;;;;;5.40;4.90;;;19.20;99.90;;;;;;5039013;28;20509;-69
2022/06/27 01:59:04;;;;;;;5.27;4.80;;;19.20;99.90;;;;;;5036755;28;20467;-69
2022/06/27 02:01:31;;;;;;;5.60;4.90;;;19.30;99.90;;;;;;5041298;28;20455;-69
2022/06/27 02:04:00;;;;;;;8.60;5.60;;;19.30;99.90;;;;;;5034988;28;20466;-68
2022/06/27 02:06:28;;;;;;;9.07;5.60;;;19.40;99.90;;;;;;5033744;28;20480;-69
2022/06/27 02:08:56;;;;;;;5.93;5.20;;;19.40;99.90;;;;;;5038001;28;20602;-70
2022/06/27 02:14:46;;;;;;;5.33;4.13;;;19.20;99.90;;;;;;5036284;28;20483;-69
2022/06/27 02:17:13;;;;;;;7.80;5.43;;;18.90;99.90;;;;;;5040091;28;20456;-69
2022/06/27 02:19:41;;;;;;;7.77;5.90;;;19.00;99.90;;;;;;5038963;28;20980;-69
2022/06/27 02:22:09;;;;;;;8.63;5.87;;;19.10;99.90;;;;;;5034758;28;20895;-69
2022/06/27 02:24:36;;;;;;;6.27;5.67;;;19.00;99.90;;;;;;5044755;28;20455;-69
2022/06/27 02:27:04;;;;;;;9.23;5.10;;;19.00;99.90;;;;;;5044794;28;20566;-70
2022/06/27 02:29:30;;;;;;;6.67;5.70;;;19.00;99.90;;;;;;5044989;28;20444;-70
2022/06/27 02:32:00;;;;;;;8.03;5.50;;;19.10;99.90;;;;;;5046433;28;20448;-70
2022/06/27 02:34:28;;;;;;;7.20;5.40;;;19.10;99.90;;;;;;5048555;28;20458;-70
2022/06/27 02:36:56;;;;;;;6.20;5.60;;;19.00;99.90;;;;;;5039316;28;20781;-69
2022/06/27 02:39:26;;;;;;;6.57;5.43;;;18.90;99.90;;;;;;5034351;28;20557;-69
2022/06/27 02:41:55;;;;;;;8.53;5.50;;;18.80;99.90;;;;;;5040806;28;20530;-69
2022/06/27 02:44:22;;;;;;;7.07;6.37;;;18.80;99.90;;;;;;5044276;28;20462;-69
2022/06/27 02:46:51;;;;;;;7.50;5.97;;;18.80;99.90;;;;;;5044185;28;20461;-68
2022/06/27 02:49:21;;;;;;;7.20;4.70;;;18.80;99.90;;;;;;5041816;28;20441;-69
2022/06/27 02:51:55;;;;;;;7.40;5.63;;;18.70;99.90;;;;;;5040375;28;20527;-69
2022/06/27 02:54:27;;;;;;;7.60;5.40;;;18.60;99.90;;;;;;5040208;28;20908;-69
2022/06/27 02:57:02;;;;;;;9.27;6.27;;;18.50;99.90;;;;;;5039032;28;20880;-69
2022/06/27 02:59:33;;;;;;;7.60;6.90;;;18.60;99.90;;;;;;5030387;28;20460;-69
2022/06/27 03:02:01;;;;;;;6.57;5.30;;;18.50;99.90;;;;;;5037767;28;20929;-69
2022/06/27 03:04:29;;;;;;;6.80;5.33;;;18.50;99.90;;;;;;5039796;28;20471;-70
2022/06/27 03:06:56;;;;;;;7.40;5.33;;;18.50;99.90;;;;;;5038846;28;20479;-70
2022/06/27 03:09:23;;;;;;;8.00;5.77;;;18.40;99.90;;;;;;5033969;28;20836;-69
2022/06/27 03:11:50;;;;;;;8.10;5.10;;;18.40;99.90;;;;;;5042423;28;20600;-69
2022/06/27 03:14:17;;;;;;;5.97;4.40;;;18.30;99.90;;;;;;5032394;28;20467;-70
2022/06/27 03:16:45;;;;;;;7.97;4.80;;;18.50;99.90;;;;;;5031344;28;20474;-69
2022/06/27 03:19:12;;;;;;;7.03;5.10;;;18.60;99.90;;;;;;5026673;28;20842;-69
2022/06/27 03:21:41;;;;;;;5.97;4.73;;;18.50;99.90;;;;;;5033725;28;20540;-70
2022/06/27 03:24:08;;;;;;;7.53;5.10;;;18.60;99.90;;;;;;5036771;28;20488;-69
2022/06/27 03:26:35;;;;;;;6.60;4.80;;;18.50;99.90;;;;;;5036680;28;20480;-70
2022/06/27 03:29:03;;;;;;;6.17;4.70;;;18.50;99.90;;;;;;5036296;28;20460;-69
2022/06/27 03:31:30;;;;;;;6.67;5.13;;;18.70;99.90;;;;;;5024785;28;20452;-69
2022/06/27 03:33:57;;;;;;;6.90;4.57;;;18.70;99.90;;;;;;5033328;28;20453;-69
2022/06/27 03:36:24;;;;;;;7.27;5.53;;;18.70;99.90;;;;;;5035005;28;20483;-70
2022/06/27 03:38:52;;;;;;;6.33;5.03;;;18.70;99.90;;;;;;5033627;28;21492;-69
2022/06/27 03:41:20;;;;;;;7.03;4.90;;;18.70;99.90;;;;;;5037238;28;20484;-70
2022/06/27 03:43:47;;;;;;;10.20;5.70;;;18.70;99.90;;;;;;5032216;28;20590;-70
2022/06/27 03:46:14;;;;;;;5.40;4.90;;;18.60;99.90;;;;;;5038283;28;20559;-71
2022/06/27 03:51:25;;;;;;;9.90;5.43;;;18.70;99.90;;;;;;5021921;28;20993;-70
2022/06/27 03:53:53;;;;;;;6.40;5.20;;;18.70;99.90;;;;;;5027926;28;20466;-68
2022/06/27 03:56:20;;;;;;;7.77;6.53;;;18.90;99.90;;;;;;5058262;22;20594;-71
2022/06/27 03:58:47;;;;;;;9.60;6.70;;;18.90;99.90;;;;;;5054329;28;20495;-70
2022/06/27 04:01:14;;;;;;;5.27;4.60;;;18.90;99.90;;;;;;5052687;28;20468;-71
2022/06/27 04:03:41;;;;;;;6.10;5.50;;;18.90;99.90;;;;;;5056091;28;20475;-71
2022/06/27 04:06:08;;;;;;;5.43;4.73;;;19.00;99.90;;;;;;5047718;28;20473;-71
2022/06/27 04:08:34;;;;;;;8.37;5.13;;;19.00;99.90;;;;;;5034796;28;20456;-71
2022/06/27 04:11:03;;;;;;;5.23;4.20;;;19.10;99.90;;;;;;5034492;28;20458;-71
2022/06/27 04:13:29;;;;;;;8.47;5.50;;;18.80;99.90;;;;;;5031397;28;20456;-71
2022/06/27 04:15:56;;;;;;;6.27;5.07;;;18.90;99.90;;;;;;5036940;28;20475;-71
2022/06/27 04:18:23;;;;;;;7.70;5.20;;;18.90;99.90;;;;;;5029899;28;20475;-71
2022/06/27 04:20:50;;;;;;;11.33;8.73;;;19.00;99.90;;;;;;5035736;28;20466;-71
2022/06/27 04:23:16;;;;;;;6.83;5.27;;;18.90;99.90;;;;;;5031435;28;20511;-71
2022/06/27 04:25:43;;;;;;;6.77;4.60;;;18.90;99.90;;;;;;5037469;28;20494;-71
2022/06/27 04:28:12;;;;;;;8.07;5.00;;;18.80;99.90;;;;;;5033796;28;21340;-71
2022/06/27 04:30:40;;;;;;;6.90;5.27;;;18.70;99.90;;;;;;5039256;28;20467;-71
2022/06/27 04:33:07;;;;;;;9.33;6.30;;;18.60;99.90;;;;;;5018826;28;20452;-72
2022/06/27 04:35:34;;;;;;;8.87;6.20;;;18.80;99.90;;;;;;5025778;28;20461;-71
2022/06/27 04:38:01;;;;;;;10.77;7.73;;;18.90;99.90;;;;;;5038964;28;20964;-71
2022/06/27 04:40:28;;;;;;;7.30;5.77;;;19.00;99.90;;;;;;5026877;28;20468;-72
2022/06/27 04:42:56;;;;;;;7.67;5.43;;;18.80;99.90;;;;;;5036143;28;20802;-71
2022/06/27 04:45:25;;;;;;;8.30;6.07;;;18.90;99.90;;;;;;5039949;28;20455;-71
2022/06/27 04:47:53;;;;;;;8.00;6.33;;;18.80;99.90;;;;;;5039515;28;20478;-72
2022/06/27 04:50:21;;;;;;;7.83;5.67;;;18.80;99.90;;;;;;5038390;28;20480;-71
2022/06/27 04:52:49;;;;;;;9.93;5.57;;;18.60;99.90;;;;;;5034795;28;20510;-71
2022/06/27 04:55:17;;;;;;;9.50;5.93;;;18.60;99.90;;;;;;5041035;28;20530;-71
2022/06/27 04:57:46;;;;;;;7.93;6.03;;;18.70;99.90;;;;;;5039988;28;20462;-71
2022/06/27 05:00:15;;;;;;;7.50;5.70;;;18.80;99.90;;;;;;5040778;28;20470;-71
2022/06/27 05:02:43;;;;;;;10.60;6.33;;;18.60;99.90;;;;;;5042389;28;20496;-71
2022/06/27 05:05:10;;;;;;;9.17;6.30;;;18.50;99.90;;;;;;5039842;28;20832;-71
2022/06/27 05:07:37;;;;;;;9.70;7.43;;;18.60;99.90;;;;;;5039472;28;21162;-71
2022/06/27 05:10:05;;;;;;;8.10;5.80;;;18.60;99.90;;;;;;5044203;28;20834;-71
2022/06/27 05:12:32;;;;;;;11.53;5.93;;;18.60;99.90;;;;;;5035919;28;20448;-71
2022/06/27 05:14:59;;;;;;;7.53;5.60;;;18.60;99.90;;;;;;5038950;28;20444;-71
2022/06/27 05:17:26;;;;;;;8.10;5.20;;;18.70;99.90;;;;;;5032560;28;20476;-71
2022/06/27 05:19:54;;;;;;;12.20;7.40;;;18.60;99.90;;;;;;5037912;28;20444;-72
2022/06/27 05:22:21;;;;;;;10.17;5.77;;;18.50;99.90;;;;;;5037678;28;20524;-73
2022/06/27 05:24:49;;;;;;;8.17;6.10;;;18.50;99.90;;;;;;5040209;28;20486;-71
2022/06/27 05:27:17;;;;;;;8.80;5.30;;;18.40;99.90;;;;;;5034079;28;20842;-71
2022/06/27 05:29:44;;;;;;;10.10;6.47;;;18.20;99.90;;;;;;5037557;28;20463;-71
2022/06/27 05:32:11;;;;;;;12.00;5.90;;;18.10;99.90;;;;;;5038680;28;20552;-71
2022/06/27 05:34:39;;;;;;;8.70;5.47;;;18.10;99.90;;;;;;5040421;28;20502;-72
2022/06/27 05:37:07;;;;;;;8.00;5.50;;;18.10;99.90;;;;;;5044918;28;20456;-71
2022/06/27 05:39:35;;;;;;;9.27;6.77;;;18.00;99.90;;;;;;5037580;28;20452;-72
2022/06/27 05:42:03;;;;;;;9.07;7.17;;;18.10;99.90;;;;;;5040035;28;20502;-72
2022/06/27 05:44:30;;;;;;;11.70;7.90;;;18.40;99.90;;;;;;5038677;28;20486;-72
2022/06/27 05:46:58;;;;;;;11.80;8.00;;;18.50;99.90;;;;;;5036822;28;21063;-71
2022/06/27 05:49:25;;;;;;;10.53;6.50;;;18.60;99.90;;;;;;5029935;28;20978;-72
2022/06/27 05:51:52;;;;;;;9.93;7.37;;;18.70;99.90;;;;;;5036003;28;20457;-72
2022/06/27 05:54:21;;;;;;;8.00;5.83;;;18.90;99.90;;;;;;5045182;28;20459;-72
2022/06/27 05:56:49;;;;;;;8.17;6.77;;;19.00;99.90;;;;;;5040826;28;21012;-72
2022/06/27 05:59:16;;;;;;;10.67;5.73;;;19.30;99.90;;;;;;5037160;28;20509;-71
2022/06/27 06:01:45;;;;;;;8.53;6.37;;;19.80;99.90;;;;;;5038077;28;21875;-72
2022/06/27 06:04:13;;;;;;;7.43;6.00;;;20.30;99.90;;;;;;5039021;28;20570;-72
2022/06/27 06:06:43;;;;;;;6.70;5.10;;;20.70;99.90;;;;;;5041437;28;20568;-72
2022/06/27 06:09:11;;;;;;;8.40;5.97;;;20.70;99.90;;;;;;5039113;28;20452;-71
2022/06/27 06:11:40;;;;;;;9.67;5.33;;;20.00;99.90;;;;;;5043515;28;20791;-72
2022/06/27 06:14:08;;;;;;;8.40;6.73;;;19.70;99.90;;;;;;5045518;28;20440;-71
2022/06/27 06:16:35;;;;;;;6.80;6.10;;;19.40;99.90;;;;;;5040165;28;20480;-72
2022/06/27 06:19:02;;;;;;;8.70;6.07;;;19.50;99.90;;;;;;5041900;28;20537;-72
2022/06/27 06:21:29;;;;;;;8.80;6.07;;;19.50;99.90;;;;;;5040804;28;20444;-72
2022/06/27 06:23:57;;;;;;;8.93;6.13;;;19.50;99.90;;;;;;5045628;28;20479;-72
2022/06/27 06:26:24;;;;;;;7.73;5.53;;;19.50;99.90;;;;;;5040263;28;20471;-72
2022/06/27 06:28:53;;;;;;;6.27;5.60;;;19.60;99.90;;;;;;5042375;28;20444;-72
2022/06/27 06:31:23;;;;;;;10.73;6.57;;;19.70;99.90;;;;;;5038462;28;20521;-72
2022/06/27 06:33:51;;;;;;;8.57;5.53;;;19.90;99.90;;;;;;5039680;28;20892;-72
2022/06/27 06:36:21;;;;;;;9.10;6.83;;;19.90;99.90;;;;;;5042415;28;20545;-71
2022/06/27 06:38:49;;;;;;;7.40;5.80;;;19.80;99.90;;;;;;5041654;28;20460;-71
2022/06/27 06:41:17;;;;;;;7.63;6.20;;;19.70;99.90;;;;;;5045109;28;20446;-71
2022/06/27 06:43:45;;;;;;;8.37;7.37;;;19.60;99.90;;;;;;5035958;28;20494;-71
2022/06/27 06:46:14;;;;;;;10.63;7.50;;;19.60;99.90;;;;;;5041648;28;20479;-70
2022/06/27 06:48:41;;;;;;;11.20;8.40;;;19.50;99.90;;;;;;5043917;28;20462;-70
2022/06/27 06:51:08;;;;;;;10.97;7.40;;;19.60;99.90;;;;;;5042923;28;20441;-71
2022/06/27 06:53:37;;;;;;;11.20;8.50;;;19.70;99.90;;;;;;5041783;28;20448;-73
2022/06/27 06:56:04;;;;;;;11.60;7.10;;;19.70;99.90;;;;;;5032532;28;20986;-70
2022/06/27 06:58:31;;;;;;;8.70;6.90;;;19.70;99.90;;;;;;5041853;28;20440;-71
2022/06/27 07:00:58;;;;;;;17.17;8.70;;;19.80;99.90;;;;;;5036794;28;21193;-71
2022/06/27 07:03:26;;;;;;;11.63;7.27;;;19.80;99.90;;;;;;5043473;28;20651;-72
2022/06/27 07:05:53;;;;;;;8.53;7.60;;;19.80;99.90;;;;;;5035815;28;20552;-72
2022/06/27 07:08:20;;;;;;;10.33;8.87;;;19.80;99.90;;;;;;5045138;28;20463;-71
2022/06/27 07:10:47;;;;;;;18.13;9.33;;;19.90;99.90;;;;;;5037799;28;20494;-73
2022/06/27 07:13:15;;;;;;;12.93;8.73;;;20.00;99.90;;;;;;5040401;28;20452;-72
2022/06/27 07:15:43;;;;;;;12.53;9.13;;;20.00;99.90;;;;;;5042023;28;20469;-72
2022/06/27 07:18:10;;;;;;;15.80;10.10;;;19.80;99.90;;;;;;5041625;28;20531;-72
2022/06/27 07:20:39;;;;;;;14.70;9.90;;;19.70;99.90;;;;;;5041035;28;20928;-72
2022/06/27 07:23:07;;;;;;;22.37;10.67;;;19.60;99.90;;;;;;5040809;28;20451;-72
2022/06/27 07:25:35;;;;;;;17.33;10.83;;;19.60;99.90;;;;;;5044252;28;20492;-72
2022/06/27 07:28:02;;;;;;;16.27;10.03;;;19.50;99.90;;;;;;5040610;28;20460;-73
2022/06/27 07:30:29;;;;;;;16.73;9.37;;;19.40;99.90;;;;;;5039542;28;20454;-72
2022/06/27 07:32:56;;;;;;;17.60;9.90;;;19.50;99.90;;;;;;5040428;28;20483;-73
2022/06/27 07:35:24;;;;;;;14.77;8.90;;;19.60;99.90;;;;;;5043583;28;21543;-73
2022/06/27 07:37:52;;;;;;;15.30;9.47;;;19.70;99.90;;;;;;5039320;28;20464;-72
2022/06/27 07:40:21;;;;;;;17.70;10.47;;;19.70;99.90;;;;;;5039827;28;20454;-73
2022/06/27 07:42:49;;;;;;;12.33;9.50;;;19.80;99.90;;;;;;5042091;28;20968;-72
2022/06/27 07:45:18;;;;;;;16.20;11.50;;;19.80;99.90;;;;;;5042049;28;20491;-73
2022/06/27 07:47:47;;;;;;;17.50;11.30;;;19.80;99.90;;;;;;5037537;28;20852;-72
2022/06/27 07:50:36;;;;;;;17.43;10.77;;;19.90;99.90;;;;;;5036244;28;20427;-71
2022/06/27 07:53:14;;;;;;;16.30;12.20;;;19.80;99.90;;;;;;5042894;28;20467;-72
2022/06/27 07:55:41;;;;;;;15.67;11.07;;;19.70;99.90;;;;;;5041265;28;20456;-74
2022/06/27 07:58:09;;;;;;;16.07;11.73;;;19.70;99.90;;;;;;5043374;28;20451;-71
2022/06/27 08:00:36;;;;;;;15.73;10.27;;;19.70;99.90;;;;;;5038681;28;20898;-72
2022/06/27 08:03:36;;;;;;;17.80;11.43;;;19.70;99.90;;;;;;5033349;28;21133;-73
2022/06/27 08:05:53;;;;;;;21.77;11.50;;;19.70;99.90;;;;;;5032904;28;21049;-73
2022/06/27 08:08:23;;;;;;;15.27;9.77;;;19.70;99.90;;;;;;5036115;28;20909;-71
2022/06/27 08:10:50;;;;;;;17.13;11.00;;;19.80;99.90;;;;;;5036715;28;20488;-73
2022/06/27 08:13:17;;;;;;;22.90;13.53;;;19.90;99.90;;;;;;5041797;28;20447;-72
2022/06/27 08:15:45;;;;;;;17.60;10.43;;;20.00;99.90;;;;;;5040215;28;20584;-72
2022/06/27 08:18:12;;;;;;;18.23;9.83;;;19.90;99.90;;;;;;5041646;28;20947;-72
2022/06/27 08:20:40;;;;;;;20.47;11.87;;;19.70;99.90;;;;;;5044135;28;20462;-72
2022/06/27 08:23:08;;;;;;;16.07;11.30;;;19.80;99.90;;;;;;5043229;28;20452;-72
2022/06/27 08:25:37;;;;;;;17.43;10.93;;;19.70;99.90;;;;;;5041425;28;20476;-72
2022/06/27 08:28:05;;;;;;;18.07;12.23;;;19.90;99.90;;;;;;5040621;28;20477;-72
2022/06/27 08:30:33;;;;;;;20.23;11.13;;;19.90;99.90;;;;;;5039440;28;20462;-73
2022/06/27 08:33:00;;;;;;;17.10;12.53;;;20.10;99.90;;;;;;5042296;28;20500;-73
2022/06/27 08:35:27;;;;;;;22.43;11.20;;;20.40;99.90;;;;;;5037286;28;20456;-72
2022/06/27 08:37:55;;;;;;;15.80;10.67;;;20.70;99.90;;;;;;5043686;28;20537;-72
2022/06/27 08:40:22;;;;;;;16.50;11.50;;;21.00;99.90;;;;;;5038885;28;20451;-72
2022/06/27 08:42:50;;;;;;;17.43;12.13;;;21.20;99.90;;;;;;5041284;28;21191;-71
2022/06/27 08:45:19;;;;;;;21.20;12.27;;;20.90;99.90;;;;;;5039682;28;20498;-71
2022/06/27 08:47:46;;;;;;;15.47;10.43;;;20.80;99.90;;;;;;5036648;28;20540;-71
2022/06/27 08:50:14;;;;;;;15.87;11.03;;;20.80;99.90;;;;;;5040049;28;20449;-71
2022/06/27 08:52:42;;;;;;;19.47;12.10;;;20.80;99.90;;;;;;5034009;28;20427;-75
2022/06/27 08:55:09;;;;;;;15.17;10.87;;;20.90;99.90;;;;;;5035542;28;21104;-72
2022/06/27 08:57:39;;;;;;;14.53;10.70;;;20.40;99.90;;;;;;5039958;28;20560;-72
2022/06/27 09:00:09;;;;;;;17.33;11.70;;;20.50;99.90;;;;;;5037650;28;20815;-73
2022/06/27 09:02:42;;;;;;;15.60;11.97;;;20.70;99.90;;;;;;5039324;28;20437;-72
2022/06/27 09:05:17;;;;;;;18.33;11.73;;;20.60;99.90;;;;;;5033909;28;20488;-73
2022/06/27 09:07:49;;;;;;;15.43;11.20;;;20.40;99.90;;;;;;5038844;28;20475;-72
2022/06/27 09:10:29;;;;;;;18.03;10.87;;;20.40;99.90;;;;;;5036533;28;20461;-72
2022/06/27 09:12:58;;;;;;;15.07;11.30;;;20.50;99.90;;;;;;5033967;28;20470;-72
2022/06/27 09:15:29;;;;;;;19.03;12.83;;;20.30;99.90;;;;;;5045076;28;20458;-73
2022/06/27 09:18:03;;;;;;;16.20;9.57;;;20.30;99.90;;;;;;5035151;28;21066;-72
2022/06/27 09:20:46;;;;;;;16.33;11.00;;;20.40;99.90;;;;;;5040981;28;20436;-72
2022/06/27 09:23:35;;;;;;;22.37;12.53;;;20.20;99.90;;;;;;5042511;28;20471;-72
2022/06/27 09:26:04;;;;;;;15.03;10.40;;;20.00;99.90;;;;;;5033619;28;20584;-72
2022/06/27 09:28:43;;;;;;;15.73;10.63;;;20.10;99.90;;;;;;5033318;28;20474;-73
2022/06/27 09:31:13;;;;;;;15.80;10.10;;;20.00;99.90;;;;;;5039869;28;20515;-73
2022/06/27 09:33:41;;;;;;;17.07;11.50;;;20.20;99.90;;;;;;5039816;28;20441;-73
2022/06/27 09:36:13;;;;;;;19.93;11.43;;;20.20;99.90;;;;;;5036273;28;20486;-73
2022/06/27 09:38:44;;;;;;;12.53;10.23;;;20.40;99.90;;;;;;5037991;28;20873;-72
2022/06/27 09:41:13;;;;;;;19.73;12.67;;;20.40;99.90;;;;;;5040366;28;20515;-72
2022/06/27 09:43:46;;;;;;;16.77;10.73;;;20.30;99.90;;;;;;5038636;28;20540;-73
2022/06/27 09:46:17;;;;;;;15.37;10.10;;;20.40;99.90;;;;;;5040600;28;20487;-72
2022/06/27 09:48:46;;;;;;;15.57;10.10;;;20.40;99.90;;;;;;5045132;28;21024;-72
2022/06/27 09:51:16;;;;;;;12.40;9.57;;;20.40;99.90;;;;;;5037642;28;20463;-71
2022/06/27 09:53:47;;;;;;;15.77;10.70;;;20.70;99.90;;;;;;5039030;28;20633;-71
2022/06/27 09:56:15;;;;;;;21.20;11.80;;;21.00;99.90;;;;;;5070334;22;20485;-70
2022/06/27 09:58:43;;;;;;;14.17;9.70;;;21.20;99.90;;;;;;5033892;28;20559;-69
2022/06/27 10:01:11;;;;;;;14.90;9.90;;;21.30;99.90;;;;;;5039706;28;20939;-69
2022/06/27 10:03:40;;;;;;;12.13;8.60;;;21.70;99.90;;;;;;5040659;28;20470;-69
2022/06/27 10:06:07;;;;;;;18.30;11.67;;;22.00;99.90;;;;;;5046731;28;20486;-70
2022/06/27 10:08:35;;;;;;;12.80;8.00;;;22.30;99.90;;;;;;5043691;28;20464;-69
2022/06/27 10:11:10;;;;;;;12.50;9.47;;;22.30;99.90;;;;;;5042080;28;20460;-69
2022/06/27 10:13:39;;;;;;;20.83;9.30;;;22.10;99.90;;;;;;5040224;28;20457;-70
2022/06/27 10:16:13;;;;;;;14.73;9.63;;;21.90;99.90;;;;;;5041657;28;20583;-69
2022/06/27 10:19:00;;;;;;;18.13;9.97;;;22.00;99.90;;;;;;5044009;28;21986;-70
2022/06/27 10:21:29;;;;;;;15.70;10.70;;;21.90;99.90;;;;;;5045236;28;20449;-70
2022/06/27 10:24:35;;;;;;;18.53;10.60;;;21.80;99.90;;;;;;5043514;28;20440;-70
2022/06/27 10:27:07;;;;;;;13.60;10.47;;;21.70;99.90;;;;;;5034229;28;21003;-70
2022/06/27 10:29:49;;;;;;;14.30;10.10;;;21.80;99.90;;;;;;5042114;28;20581;-70
2022/06/27 10:32:39;;;;;;;15.97;11.73;;;21.90;99.90;;;;;;5040538;28;20441;-70
2022/06/27 10:35:13;;;;;;;12.60;10.30;;;22.10;99.90;;;;;;5045062;28;20531;-69
2022/06/27 10:37:41;;;;;;;11.30;9.40;;;22.20;99.90;;;;;;5043382;28;20471;-70
2022/06/27 10:40:56;;;;;;;13.23;9.47;;;22.50;99.90;;;;;;5037378;28;20548;-70
2022/06/27 10:43:46;;;;;;;21.67;13.70;;;22.70;99.90;;;;;;5042056;28;20445;-70
2022/06/27 10:46:52;;;;;;;15.73;11.00;;;22.90;99.90;;;;;;5044386;28;20487;-69
2022/06/27 10:49:26;;;;;;;14.33;9.70;;;22.80;99.90;;;;;;5040555;28;20563;-70
2022/06/27 10:52:32;;;;;;;12.47;9.10;;;22.60;99.90;;;;;;5039028;28;20452;-70
2022/06/27 10:54:59;;;;;;;15.20;8.97;;;22.80;99.90;;;;;;5043797;28;20468;-70
2022/06/27 10:57:44;;;;;;;11.40;8.87;;;22.70;99.90;;;;;;5044104;28;20484;-70
2022/06/27 11:00:31;;;;;;;11.90;7.20;;;22.60;99.90;;;;;;5039175;28;20448;-70
2022/06/27 11:03:00;;;;;;;9.63;8.70;;;22.70;99.90;;;;;;5042860;28;21071;-70
2022/06/27 11:05:27;;;;;;;8.50;7.60;;;22.10;99.90;;;;;;5044491;28;20559;-69
2022/06/27 11:07:56;;;;;;;10.97;9.87;;;21.80;99.90;;;;;;5044263;28;20464;-70
2022/06/27 11:10:23;;;;;;;8.93;7.30;;;21.90;99.90;;;;;;5045526;28;20445;-70
2022/06/27 11:12:50;;;;;;;9.20;7.67;;;22.20;99.90;;;;;;5040467;28;20806;-70
2022/06/27 11:15:16;;;;;;;10.37;9.07;;;22.20;99.90;;;;;;5042865;28;20483;-70
2022/06/27 11:17:44;;;;;;;9.80;7.70;;;22.00;99.90;;;;;;5043163;28;20527;-70
2022/06/27 11:20:15;;;;;;;9.53;6.97;;;22.20;99.90;;;;;;5042970;28;20510;-70
2022/06/27 11:22:42;;;;;;;10.87;8.10;;;22.00;99.90;;;;;;5040367;28;20514;-70
2022/06/27 11:25:11;;;;;;;8.93;7.40;;;21.90;99.90;;;;;;5041195;28;20491;-71
2022/06/27 11:27:45;;;;;;;13.40;7.80;;;22.00;99.90;;;;;;5040467;28;20471;-70
2022/06/27 11:33:17;;;;;;;9.47;8.50;;;21.90;99.90;;;;;;5040403;28;20471;-70
2022/06/27 11:35:45;;;;;;;12.97;11.27;;;22.00;99.90;;;;;;5041995;28;20535;-71
2022/06/27 11:38:12;;;;;;;11.73;8.20;;;22.00;99.90;;;;;;5046191;28;20464;-73
2022/06/27 11:40:40;;;;;;;8.77;7.27;;;21.90;99.90;;;;;;5040039;28;20546;-71
2022/06/27 11:43:08;;;;;;;8.80;7.17;;;22.00;99.90;;;;;;5037316;28;20464;-71
2022/06/27 11:45:41;;;;;;;8.10;7.30;;;22.00;99.90;;;;;;5044953;28;20568;-71
2022/06/27 11:48:14;;;;;;;10.50;8.50;;;22.20;99.90;;;;;;5042387;28;20873;-70
2022/06/27 11:50:41;;;;;;;9.07;8.13;;;22.40;99.90;;;;;;5038911;28;20457;-71
2022/06/27 11:53:09;;;;;;;10.37;7.90;;;22.30;99.90;;;;;;5042731;28;20447;-71
2022/06/27 11:55:40;;;;;;;10.23;8.93;;;22.20;99.90;;;;;;5043218;28;20436;-71
2022/06/27 11:58:07;;;;;;;13.63;8.50;;;22.30;99.90;;;;;;5039423;28;20488;-71
2022/06/27 12:00:35;;;;;;;12.20;8.80;;;22.50;99.90;;;;;;5038569;28;20458;-71
2022/06/27 12:03:05;;;;;;;10.50;8.80;;;22.60;99.90;;;;;;5032244;28;20466;-71
2022/06/27 12:05:33;;;;;;;11.40;8.80;;;22.50;99.90;;;;;;5041999;28;20607;-71
2022/06/27 12:08:02;;;;;;;8.80;7.90;;;22.60;99.90;;;;;;5045260;28;20549;-70
2022/06/27 12:13:34;;;;;;;11.17;8.10;;;22.30;99.90;;;;;;5048813;28;20429;-71
2022/06/27 12:16:02;;;;;;;9.80;7.67;;;22.10;99.90;;;;;;5044770;28;20441;-70
2022/06/27 12:18:34;;;;;;;11.90;7.20;;;22.30;99.90;;;;;;5042267;28;20495;-70
2022/06/27 12:21:01;;;;;;;11.93;9.70;;;22.20;99.90;;;;;;5046122;28;20456;-69
2022/06/27 12:23:28;;;;;;;7.83;7.00;;;22.30;99.90;;;;;;5042552;28;20444;-70
2022/06/27 12:25:56;;;;;;;7.57;6.77;;;22.50;99.90;;;;;;5035905;28;20541;-70
2022/06/27 12:28:24;;;;;;;8.30;7.43;;;22.60;99.90;;;;;;5042960;28;20511;-72
2022/06/27 12:30:51;;;;;;;9.20;6.07;;;23.00;99.90;;;;;;5030523;28;20471;-70
2022/06/27 12:33:18;;;;;;;10.60;8.13;;;23.30;99.90;;;;;;5043170;28;20491;-71
2022/06/27 12:35:45;;;;;;;7.67;6.87;;;23.70;99.90;;;;;;5039643;28;20457;-70
2022/06/27 12:38:12;;;;;;;13.13;9.13;;;24.20;99.90;;;;;;5042453;28;20475;-71
2022/06/27 12:40:39;;;;;;;8.30;6.43;;;24.10;99.90;;;;;;5039892;28;20444;-70
2022/06/27 12:43:07;;;;;;;9.87;7.00;;;24.00;99.90;;;;;;5043522;28;20436;-70
2022/06/27 12:45:36;;;;;;;9.00;6.23;;;23.70;99.90;;;;;;5038986;28;20511;-70
2022/06/27 12:48:05;;;;;;;7.67;6.17;;;24.50;99.90;;;;;;5039504;28;20559;-71
2022/06/27 12:50:32;;;;;;;9.17;6.53;;;24.50;99.90;;;;;;5041560;28;20449;-71
2022/06/27 12:52:59;;;;;;;7.17;6.40;;;24.40;99.90;;;;;;5036230;28;20474;-71
2022/06/27 12:55:26;;;;;;;14.80;6.87;;;24.50;99.90;;;;;;5039771;28;20488;-71
2022/06/27 12:57:52;;;;;;;7.90;6.20;;;24.40;99.90;;;;;;5037146;28;21225;-71
2022/06/27 13:00:21;;;;;;;6.93;6.27;;;24.50;99.90;;;;;;5033661;28;20975;-71
2022/06/27 13:02:48;;;;;;;8.40;6.93;;;24.40;99.90;;;;;;5040618;28;20455;-71